Vision of The Seas — C6SE8 — position and weather

sailwx.info

Track history (hours):
 
Tides and Currents Weather Stations Pressure Air Temp Water Temp Dewpoint Dewpoint Depression Visibility Wind Speed Wind Dir Waves Ship Positions

Vision of The Seas

Operator: Royal Caribbean Cruises Ltd

Last reported at 2017-Apr-29 05:25 UTC. Time now 2017-Apr-29 13:22 UTC.
Position N 38°54' E 001°27'.

Type: Passenger vessel. MMSI: 311321000.

Date/timePositionNaut miles runAvg speedWind from/ knotsBaromVisibWave heightAir tempDewpointWater temp
2017-Apr-29 05:25N 38°54' E 001°27'3 7.1
2017-Apr-29 05:00N 38°53' E 001°31'4 8.2
2017-Apr-29 04:30N 38°52' E 001°36'4 8.3
2017-Apr-29 04:00N 38°50' E 001°41'4 8.4
2017-Apr-29 03:30N 38°49' E 001°46'4 8.4
2017-Apr-29 03:00N 38°48' E 001°51'4 8.4
2017-Apr-29 02:30N 38°46' E 001°56'4 8.4
2017-Apr-29 02:00N 38°45' E 002°01'4 8.4
2017-Apr-29 01:30N 38°44' E 002°06'4 8.4
2017-Apr-29 01:00N 38°43' E 002°11'4 8.2
2017-Apr-29 00:30N 38°42' E 002°17'4 8.3
2017-Apr-29 00:00N 38°42' E 002°22'4 8.1
2017-Apr-28 23:30N 38°42' E 002°27'6 6.7
2017-Apr-28 22:38N 38°46' E 002°33'2 8.5
2017-Apr-28 22:22N 38°49' E 002°33'3 8.5
2017-Apr-28 21:57N 38°52' E 002°33'4 8.5
2017-Apr-28 21:30N 38°56' E 002°33'4 8.4
2017-Apr-28 21:00N 39°00' E 002°33'4 8.5
2017-Apr-28 20:31N 39°05' E 002°33'4 8.5
2017-Apr-28 20:00N 39°09' E 002°33'4 8.5
2017-Apr-28 19:30N 39°13' E 002°34'4 8.5
2017-Apr-28 19:00N 39°17' E 002°35'4 8.6
2017-Apr-28 18:30N 39°21' E 002°37'4 7.8
2017-Apr-28 18:00N 39°25' E 002°39'4 7.2
2017-Apr-28 17:30N 39°28' E 002°39'3 6.3
2017-Apr-28 17:00N 39°32' E 002°39'2 3.5
2017-Apr-28 16:30N 39°33' E 002°38'0 0.1
2017-Apr-28 15:59N 39°33' E 002°38'0 0.0
2017-Apr-28 15:29N 39°33' E 002°38'0 0.0
2017-Apr-28 14:59N 39°33' E 002°38'0 0.0
2017-Apr-28 13:59N 39°33' E 002°38'0 0.0
2017-Apr-28 13:29N 39°33' E 002°38'0 0.0
2017-Apr-28 12:59N 39°33' E 002°38'0 0.0
2017-Apr-28 12:29N 39°33' E 002°38'0 0.0
2017-Apr-28 11:59N 39°33' E 002°38'0 0.0
2017-Apr-28 11:29N 39°33' E 002°38'0 0.0
2017-Apr-28 10:59N 39°33' E 002°38'0 0.0
2017-Apr-28 10:29N 39°33' E 002°38'0 0.0
2017-Apr-28 09:59N 39°33' E 002°38'0 0.0
2017-Apr-28 09:29N 39°33' E 002°38'0 0.0
2017-Apr-28 08:59N 39°33' E 002°38'0 0.0
2017-Apr-28 08:29N 39°33' E 002°38'0 0.0
2017-Apr-28 07:59N 39°33' E 002°38'0 0.0
2017-Apr-28 07:29N 39°33' E 002°38'0 0.0
2017-Apr-28 06:59N 39°33' E 002°38'0 0.0
2017-Apr-28 06:29N 39°33' E 002°38'0 0.0
2017-Apr-28 05:59N 39°33' E 002°38'0 0.0
2017-Apr-28 05:30N 39°33' E 002°38'2 4.4
2017-Apr-28 05:00N 39°31' E 002°39'713.3
2017-Apr-28 04:30N 39°25' E 002°40'510.9
2017-Apr-28 04:00N 39°20' E 002°43'611.5
2017-Apr-28 03:30N 39°14' E 002°46'612.1
2017-Apr-28 03:00N 39°09' E 002°49'611.7
2017-Apr-28 02:30N 39°04' E 002°53'510.4
2017-Apr-28 02:00N 39°04' E 002°59'611.3
2017-Apr-28 01:30N 39°06' E 003°06'611.1
2017-Apr-28 01:00N 39°08' E 003°12'511.0
2017-Apr-28 00:30N 39°10' E 003°19'611.1
2017-Apr-28 00:00N 39°12' E 003°26'611.2
2017-Apr-27 23:30N 39°14' E 003°32'611.3
2017-Apr-27 23:00N 39°16' E 003°39'711.3
2017-Apr-27 22:23N 39°20' E 003°47'411.2
2017-Apr-27 22:00N 39°21' E 003°52'27210.8
2017-Apr-26 20:43N 43°14' E 007°01'210.9
2017-Apr-26 20:30N 43°16' E 007°03'510.8
2017-Apr-26 20:00N 43°21' E 007°06'510.7
2017-Apr-26 19:30N 43°25' E 007°09'510.8
2017-Apr-26 19:00N 43°30' E 007°12'510.8
2017-Apr-26 18:30N 43°35' E 007°16'4 8.6
2017-Apr-26 18:00N 43°39' E 007°19'1 1.6
2017-Apr-26 17:30N 43°40' E 007°19'2 3.7
2017-Apr-26 16:59N 43°41' E 007°19'0 0.0
2017-Apr-26 09:04N 43°41' E 007°19'0 0.2
2017-Apr-26 08:19N 43°41' E 007°19'0 0.0
2017-Apr-26 06:40N 43°41' E 007°19'0 0.0
2017-Apr-26 06:16N 43°41' E 007°19'0 0.1
2017-Apr-26 05:37N 43°41' E 007°19'0 0.1
2017-Apr-26 05:16N 43°41' E 007°19'0 0.1
2017-Apr-26 04:58N 43°41' E 007°19'0 0.2
2017-Apr-26 04:29N 43°41' E 007°19'4 8.8
2017-Apr-26 04:00N 43°37' E 007°21'612.0
2017-Apr-26 03:30N 43°33' E 007°26'612.2
2017-Apr-26 03:00N 43°32' E 007°35'612.2
2017-Apr-26 02:30N 43°32' E 007°43'612.5
2017-Apr-26 02:00N 43°32' E 007°52'612.8
2017-Apr-26 01:30N 43°32' E 008°00'612.1
2017-Apr-26 01:00N 43°32' E 008°09'612.6
2017-Apr-26 00:30N 43°32' E 008°17'612.4
2017-Apr-26 00:00N 43°32' E 008°26'612.2
2017-Apr-25 23:30N 43°32' E 008°34'612.4
2017-Apr-25 23:00N 43°32' E 008°43'612.5
2017-Apr-25 22:30N 43°32' E 008°52'612.4
2017-Apr-25 22:00N 43°32' E 009°00'612.5
2017-Apr-25 21:30N 43°32' E 009°09'612.5
2017-Apr-25 21:00N 43°32' E 009°17'612.6
2017-Apr-25 20:30N 43°32' E 009°26'612.5
2017-Apr-25 20:00N 43°32' E 009°35'612.4
2017-Apr-25 19:30N 43°33' E 009°43'611.8
2017-Apr-25 19:00N 43°32' E 009°51'612.2
2017-Apr-25 18:30N 43°30' E 009°59'612.2
2017-Apr-25 18:00N 43°30' E 010°07'611.5
2017-Apr-25 17:30N 43°32' E 010°15'2 4.3
2017-Apr-25 16:59N 43°33' E 010°18'0 0.0
2017-Apr-25 16:29N 43°33' E 010°18'0 0.0
2017-Apr-25 15:56N 43°33' E 010°18'0 0.0
2017-Apr-25 15:29N 43°33' E 010°18'0 0.0
2017-Apr-25 14:59N 43°33' E 010°18'0 0.0
2017-Apr-25 14:29N 43°33' E 010°18'0 0.0
2017-Apr-25 13:29N 43°33' E 010°18'0 0.0
2017-Apr-25 12:56N 43°33' E 010°18'0 0.0
2017-Apr-25 12:29N 43°33' E 010°18'0 0.0
2017-Apr-25 11:59N 43°33' E 010°18'0 0.0
2017-Apr-25 11:29N 43°33' E 010°18'0 0.0
2017-Apr-25 10:59N 43°33' E 010°18'0 0.0
2017-Apr-25 10:29N 43°33' E 010°18'0 0.0
2017-Apr-25 09:59N 43°33' E 010°18'0 0.0
2017-Apr-25 09:29N 43°33' E 010°18'0 0.0
2017-Apr-25 08:59N 43°33' E 010°18'0 0.0
2017-Apr-25 08:29N 43°33' E 010°18'0 0.0
2017-Apr-25 07:59N 43°33' E 010°18'0 0.0
2017-Apr-25 07:29N 43°33' E 010°18'0 0.0
2017-Apr-25 06:59N 43°33' E 010°18'0 0.0
2017-Apr-25 06:29N 43°33' E 010°18'0 0.0
2017-Apr-25 05:59N 43°33' E 010°18'0 0.0
2017-Apr-25 05:30N 43°33' E 010°18'0 0.0
2017-Apr-25 05:00N 43°33' E 010°18'0 0.3
2017-Apr-25 04:30N 43°33' E 010°18'2 3.6
2017-Apr-25 04:00N 43°32' E 010°16'510.0
2017-Apr-25 03:31N 43°27' E 010°13'815.3
2017-Apr-25 03:01N 43°20' E 010°10'815.4
2017-Apr-25 02:31N 43°13' E 010°08'815.4
2017-Apr-25 02:01N 43°05' E 010°06'815.0
2017-Apr-25 01:30N 42°57' E 010°04'1712.4
2017-Apr-25 00:06N 42°40' E 010°08'414.8
2017-Apr-24 23:49N 42°38' E 010°14'398 7.8
2017-Apr-22 21:03N 36°34' E 013°43'212.6
2017-Apr-22 20:55N 36°33' E 013°45'512.6
2017-Apr-22 20:30N 36°29' E 013°49'612.4
2017-Apr-22 20:00N 36°25' E 013°55'612.4
2017-Apr-22 19:29N 36°21' E 014°01'612.3
2017-Apr-22 19:00N 36°17' E 014°06'612.3
2017-Apr-22 18:30N 36°13' E 014°12'612.3
2017-Apr-22 18:00N 36°09' E 014°18'612.5
2017-Apr-22 17:30N 36°05' E 014°24'612.6
2017-Apr-22 17:00N 36°01' E 014°30'611.9
2017-Apr-22 16:30N 35°56' E 014°33'3 0.3
2017-Apr-22 05:19N 35°53' E 014°31'1 2.3
2017-Apr-22 05:00N 35°54' E 014°31'5 9.3
2017-Apr-22 04:30N 35°57' E 014°36'714.6
2017-Apr-22 04:00N 36°01' E 014°43'714.3
2017-Apr-22 03:30N 36°06' E 014°50'  
2017-Apr-19 22:01N 44°14' E 013°55'120.8
2017-Apr-19 21:59N 44°14' E 013°54'1020.9
2017-Apr-19 21:30N 44°23' E 013°46'1121.0
2017-Apr-19 21:00N 44°32' E 013°38'1020.7
2017-Apr-19 20:30N 44°40' E 013°30'1020.6
2017-Apr-19 20:00N 44°49' E 013°23'1019.5
2017-Apr-19 19:30N 44°57' E 013°15'917.4
2017-Apr-19 19:00N 45°03' E 013°06'917.3
2017-Apr-19 18:30N 45°08' E 012°56'917.6
2017-Apr-19 18:00N 45°14' E 012°46'917.8
2017-Apr-19 17:30N 45°19' E 012°37'816.4
2017-Apr-19 17:00N 45°24' E 012°28'4 7.7
2017-Apr-19 16:31N 45°25' E 012°22'3 5.5
2017-Apr-19 16:00N 45°26' E 012°18'0 0.9
2017-Apr-19 15:29N 45°26' E 012°19'0 0.0
2017-Apr-19 14:59N 45°26' E 012°19'0 0.0
2017-Apr-19 14:29N 45°26' E 012°19'0 0.0
2017-Apr-19 13:26N 45°26' E 012°19'0 0.0
2017-Apr-19 12:59N 45°26' E 012°19'0 0.0
2017-Apr-19 12:29N 45°26' E 012°19'0 0.0
2017-Apr-19 11:59N 45°26' E 012°19'0 0.0
2017-Apr-19 11:29N 45°26' E 012°19'0 0.0
2017-Apr-19 10:59N 45°26' E 012°19'0 0.0
2017-Apr-19 10:29N 45°26' E 012°19'0 0.0
2017-Apr-19 09:59N 45°26' E 012°19'0 0.0
2017-Apr-19 09:26N 45°26' E 012°19'0 0.0
2017-Apr-19 08:59N 45°26' E 012°19'0 0.0
2017-Apr-19 08:29N 45°26' E 012°19'0 0.0
2017-Apr-19 07:59N 45°26' E 012°19'0 0.0
2017-Apr-19 07:29N 45°26' E 012°19'0 0.0
2017-Apr-19 06:59N 45°26' E 012°19'0 0.0
2017-Apr-19 06:29N 45°26' E 012°19'0 0.0
2017-Apr-19 05:59N 45°26' E 012°19'0 0.0
2017-Apr-19 05:29N 45°26' E 012°19'  
Track history (hours):
 
Tides and Currents Weather Stations Pressure Air Temp Water Temp Dewpoint Dewpoint Depression Visibility Wind Speed Wind Dir Waves Ship Positions

Vision of The Seas

Operator: Royal Caribbean Cruises Ltd

Last reported at 2017-Apr-29 05:25 UTC. Time now 2017-Apr-29 13:22 UTC.
Position N 38°54' E 001°27'.

Type: Passenger vessel. MMSI: 311321000.

Date/timePositionNaut miles runAvg speedWind from/ knotsBaromVisibWave heightAir tempDewpointWater temp
2017-Apr-29 05:25N 38°54' E 001°27'3 7.1
2017-Apr-29 05:00N 38°53' E 001°31'4 8.2
2017-Apr-29 04:30N 38°52' E 001°36'4 8.3
2017-Apr-29 04:00N 38°50' E 001°41'4 8.4
2017-Apr-29 03:30N 38°49' E 001°46'4 8.4
2017-Apr-29 03:00N 38°48' E 001°51'4 8.4
2017-Apr-29 02:30N 38°46' E 001°56'4 8.4
2017-Apr-29 02:00N 38°45' E 002°01'4 8.4
2017-Apr-29 01:30N 38°44' E 002°06'4 8.4
2017-Apr-29 01:00N 38°43' E 002°11'4 8.2
2017-Apr-29 00:30N 38°42' E 002°17'4 8.3
2017-Apr-29 00:00N 38°42' E 002°22'4 8.1
2017-Apr-28 23:30N 38°42' E 002°27'6 6.7
2017-Apr-28 22:38N 38°46' E 002°33'2 8.5
2017-Apr-28 22:22N 38°49' E 002°33'3 8.5
2017-Apr-28 21:57N 38°52' E 002°33'4 8.5
2017-Apr-28 21:30N 38°56' E 002°33'4 8.4
2017-Apr-28 21:00N 39°00' E 002°33'4 8.5
2017-Apr-28 20:31N 39°05' E 002°33'4 8.5
2017-Apr-28 20:00N 39°09' E 002°33'4 8.5
2017-Apr-28 19:30N 39°13' E 002°34'4 8.5
2017-Apr-28 19:00N 39°17' E 002°35'4 8.6
2017-Apr-28 18:30N 39°21' E 002°37'4 7.8
2017-Apr-28 18:00N 39°25' E 002°39'4 7.2
2017-Apr-28 17:30N 39°28' E 002°39'3 6.3
2017-Apr-28 17:00N 39°32' E 002°39'2 3.5
2017-Apr-28 16:30N 39°33' E 002°38'0 0.1
2017-Apr-28 15:59N 39°33' E 002°38'0 0.0
2017-Apr-28 15:29N 39°33' E 002°38'0 0.0
2017-Apr-28 14:59N 39°33' E 002°38'0 0.0
2017-Apr-28 13:59N 39°33' E 002°38'0 0.0
2017-Apr-28 13:29N 39°33' E 002°38'0 0.0
2017-Apr-28 12:59N 39°33' E 002°38'0 0.0
2017-Apr-28 12:29N 39°33' E 002°38'0 0.0
2017-Apr-28 11:59N 39°33' E 002°38'0 0.0
2017-Apr-28 11:29N 39°33' E 002°38'0 0.0
2017-Apr-28 10:59N 39°33' E 002°38'0 0.0
2017-Apr-28 10:29N 39°33' E 002°38'0 0.0
2017-Apr-28 09:59N 39°33' E 002°38'0 0.0
2017-Apr-28 09:29N 39°33' E 002°38'0 0.0
2017-Apr-28 08:59N 39°33' E 002°38'0 0.0
2017-Apr-28 08:29N 39°33' E 002°38'0 0.0
2017-Apr-28 07:59N 39°33' E 002°38'0 0.0
2017-Apr-28 07:29N 39°33' E 002°38'0 0.0
2017-Apr-28 06:59N 39°33' E 002°38'0 0.0
2017-Apr-28 06:29N 39°33' E 002°38'0 0.0
2017-Apr-28 05:59N 39°33' E 002°38'0 0.0
2017-Apr-28 05:30N 39°33' E 002°38'2 4.4
2017-Apr-28 05:00N 39°31' E 002°39'713.3
2017-Apr-28 04:30N 39°25' E 002°40'510.9
2017-Apr-28 04:00N 39°20' E 002°43'611.5
2017-Apr-28 03:30N 39°14' E 002°46'612.1
2017-Apr-28 03:00N 39°09' E 002°49'611.7
2017-Apr-28 02:30N 39°04' E 002°53'510.4
2017-Apr-28 02:00N 39°04' E 002°59'611.3
2017-Apr-28 01:30N 39°06' E 003°06'611.1
2017-Apr-28 01:00N 39°08' E 003°12'511.0
2017-Apr-28 00:30N 39°10' E 003°19'611.1
2017-Apr-28 00:00N 39°12' E 003°26'611.2
2017-Apr-27 23:30N 39°14' E 003°32'611.3
2017-Apr-27 23:00N 39°16' E 003°39'711.3
2017-Apr-27 22:23N 39°20' E 003°47'411.2
2017-Apr-27 22:00N 39°21' E 003°52'27210.8
2017-Apr-26 20:43N 43°14' E 007°01'210.9
2017-Apr-26 20:30N 43°16' E 007°03'510.8
2017-Apr-26 20:00N 43°21' E 007°06'510.7
2017-Apr-26 19:30N 43°25' E 007°09'510.8
2017-Apr-26 19:00N 43°30' E 007°12'510.8
2017-Apr-26 18:30N 43°35' E 007°16'4 8.6
2017-Apr-26 18:00N 43°39' E 007°19'1 1.6
2017-Apr-26 17:30N 43°40' E 007°19'2 3.7
2017-Apr-26 16:59N 43°41' E 007°19'0 0.0
2017-Apr-26 09:04N 43°41' E 007°19'0 0.2
2017-Apr-26 08:19N 43°41' E 007°19'0 0.0
2017-Apr-26 06:40N 43°41' E 007°19'0 0.0
2017-Apr-26 06:16N 43°41' E 007°19'0 0.1
2017-Apr-26 05:37N 43°41' E 007°19'0 0.1
2017-Apr-26 05:16N 43°41' E 007°19'0 0.1
2017-Apr-26 04:58N 43°41' E 007°19'0 0.2
2017-Apr-26 04:29N 43°41' E 007°19'4 8.8
2017-Apr-26 04:00N 43°37' E 007°21'612.0
2017-Apr-26 03:30N 43°33' E 007°26'612.2
2017-Apr-26 03:00N 43°32' E 007°35'612.2
2017-Apr-26 02:30N 43°32' E 007°43'612.5
2017-Apr-26 02:00N 43°32' E 007°52'612.8
2017-Apr-26 01:30N 43°32' E 008°00'612.1
2017-Apr-26 01:00N 43°32' E 008°09'612.6
2017-Apr-26 00:30N 43°32' E 008°17'612.4
2017-Apr-26 00:00N 43°32' E 008°26'612.2
2017-Apr-25 23:30N 43°32' E 008°34'612.4
2017-Apr-25 23:00N 43°32' E 008°43'612.5
2017-Apr-25 22:30N 43°32' E 008°52'612.4
2017-Apr-25 22:00N 43°32' E 009°00'612.5
2017-Apr-25 21:30N 43°32' E 009°09'612.5
2017-Apr-25 21:00N 43°32' E 009°17'612.6
2017-Apr-25 20:30N 43°32' E 009°26'612.5
2017-Apr-25 20:00N 43°32' E 009°35'612.4
2017-Apr-25 19:30N 43°33' E 009°43'611.8
2017-Apr-25 19:00N 43°32' E 009°51'612.2
2017-Apr-25 18:30N 43°30' E 009°59'612.2
2017-Apr-25 18:00N 43°30' E 010°07'611.5
2017-Apr-25 17:30N 43°32' E 010°15'2 4.3
2017-Apr-25 16:59N 43°33' E 010°18'0 0.0
2017-Apr-25 16:29N 43°33' E 010°18'0 0.0
2017-Apr-25 15:56N 43°33' E 010°18'0 0.0
2017-Apr-25 15:29N 43°33' E 010°18'0 0.0
2017-Apr-25 14:59N 43°33' E 010°18'0 0.0
2017-Apr-25 14:29N 43°33' E 010°18'0 0.0
2017-Apr-25 13:29N 43°33' E 010°18'0 0.0
2017-Apr-25 12:56N 43°33' E 010°18'0 0.0
2017-Apr-25 12:29N 43°33' E 010°18'0 0.0
2017-Apr-25 11:59N 43°33' E 010°18'0 0.0
2017-Apr-25 11:29N 43°33' E 010°18'0 0.0
2017-Apr-25 10:59N 43°33' E 010°18'0 0.0
2017-Apr-25 10:29N 43°33' E 010°18'0 0.0
2017-Apr-25 09:59N 43°33' E 010°18'0 0.0
2017-Apr-25 09:29N 43°33' E 010°18'0 0.0
2017-Apr-25 08:59N 43°33' E 010°18'0 0.0
2017-Apr-25 08:29N 43°33' E 010°18'0 0.0
2017-Apr-25 07:59N 43°33' E 010°18'0 0.0
2017-Apr-25 07:29N 43°33' E 010°18'0 0.0
2017-Apr-25 06:59N 43°33' E 010°18'0 0.0
2017-Apr-25 06:29N 43°33' E 010°18'0 0.0
2017-Apr-25 05:59N 43°33' E 010°18'0 0.0
2017-Apr-25 05:30N 43°33' E 010°18'0 0.0
2017-Apr-25 05:00N 43°33' E 010°18'0 0.3
2017-Apr-25 04:30N 43°33' E 010°18'2 3.6
2017-Apr-25 04:00N 43°32' E 010°16'510.0
2017-Apr-25 03:31N 43°27' E 010°13'815.3
2017-Apr-25 03:01N 43°20' E 010°10'815.4
2017-Apr-25 02:31N 43°13' E 010°08'815.4
2017-Apr-25 02:01N 43°05' E 010°06'815.0
2017-Apr-25 01:30N 42°57' E 010°04'1712.4
2017-Apr-25 00:06N 42°40' E 010°08'414.8
2017-Apr-24 23:49N 42°38' E 010°14'398 7.8
2017-Apr-22 21:03N 36°34' E 013°43'212.6
2017-Apr-22 20:55N 36°33' E 013°45'512.6
2017-Apr-22 20:30N 36°29' E 013°49'612.4
2017-Apr-22 20:00N 36°25' E 013°55'612.4
2017-Apr-22 19:29N 36°21' E 014°01'612.3
2017-Apr-22 19:00N 36°17' E 014°06'612.3
2017-Apr-22 18:30N 36°13' E 014°12'612.3
2017-Apr-22 18:00N 36°09' E 014°18'612.5
2017-Apr-22 17:30N 36°05' E 014°24'612.6
2017-Apr-22 17:00N 36°01' E 014°30'611.9
2017-Apr-22 16:30N 35°56' E 014°33'3 0.3
2017-Apr-22 05:19N 35°53' E 014°31'1 2.3
2017-Apr-22 05:00N 35°54' E 014°31'5 9.3
2017-Apr-22 04:30N 35°57' E 014°36'714.6
2017-Apr-22 04:00N 36°01' E 014°43'714.3
2017-Apr-22 03:30N 36°06' E 014°50'  
2017-Apr-19 22:01N 44°14' E 013°55'120.8
2017-Apr-19 21:59N 44°14' E 013°54'1020.9
2017-Apr-19 21:30N 44°23' E 013°46'1121.0
2017-Apr-19 21:00N 44°32' E 013°38'1020.7
2017-Apr-19 20:30N 44°40' E 013°30'1020.6
2017-Apr-19 20:00N 44°49' E 013°23'1019.5
2017-Apr-19 19:30N 44°57' E 013°15'917.4
2017-Apr-19 19:00N 45°03' E 013°06'917.3
2017-Apr-19 18:30N 45°08' E 012°56'917.6
2017-Apr-19 18:00N 45°14' E 012°46'917.8
2017-Apr-19 17:30N 45°19' E 012°37'816.4
2017-Apr-19 17:00N 45°24' E 012°28'4 7.7
2017-Apr-19 16:31N 45°25' E 012°22'3 5.5
2017-Apr-19 16:00N 45°26' E 012°18'0 0.9
2017-Apr-19 15:29N 45°26' E 012°19'0 0.0
2017-Apr-19 14:59N 45°26' E 012°19'0 0.0
2017-Apr-19 14:29N 45°26' E 012°19'0 0.0
2017-Apr-19 13:26N 45°26' E 012°19'0 0.0
2017-Apr-19 12:59N 45°26' E 012°19'0 0.0
2017-Apr-19 12:29N 45°26' E 012°19'0 0.0
2017-Apr-19 11:59N 45°26' E 012°19'0 0.0
2017-Apr-19 11:29N 45°26' E 012°19'0 0.0
2017-Apr-19 10:59N 45°26' E 012°19'0 0.0
2017-Apr-19 10:29N 45°26' E 012°19'0 0.0
2017-Apr-19 09:59N 45°26' E 012°19'0 0.0
2017-Apr-19 09:26N 45°26' E 012°19'0 0.0
2017-Apr-19 08:59N 45°26' E 012°19'0 0.0
2017-Apr-19 08:29N 45°26' E 012°19'0 0.0
2017-Apr-19 07:59N 45°26' E 012°19'0 0.0
2017-Apr-19 07:29N 45°26' E 012°19'0 0.0
2017-Apr-19 06:59N 45°26' E 012°19'0 0.0
2017-Apr-19 06:29N 45°26' E 012°19'0 0.0
2017-Apr-19 05:59N 45°26' E 012°19'0 0.0
2017-Apr-19 05:29N 45°26' E 012°19'  

Dump ship's entire track history